CheckWX is a tool to help pilots better visualize weather data.  It is not intended as a substitute for an official pre-flight weather briefing.

12:28:56 UTC

KELY TAF
Ely Arpt / Yelland Field / Airport
Ely, Nevada, USA
KELY 261120Z 2612/2712 19011KT P6SM BKN200 FM261700 18015G25KT P6SM BKN170 FM270300 18015G25KT P6SM BKN130

Mar-26@
12:00 UTC

Mar-26 @ 12:00 UTC

Mar-26@
17:00 UTC

Mar-26 @ 17:00 UTC

KELY 261120Z 2612/2712 19011KT P6SM BKN200
Wind
  • 190° at 11 KTS
Cloud Levels
  • Broken at 20,000' AGL

Mar-26@
17:00 UTC

Mar-26 @ 17:00 UTC

Mar-27@
03:00 UTC

Mar-27 @ 03:00 UTC

FM261700 18015G25KT P6SM BKN170

From

From Standard forecast or significant change

Wind
  • 180° at 15 KTS
  • {Gusting to 25 KTS
Cloud Levels
  • Broken at 17,000' AGL

Mar-27@
03:00 UTC

Mar-27 @ 03:00 UTC

Mar-27@
12:00 UTC

Mar-27 @ 12:00 UTC

FM270300 18015G25KT P6SM BKN130

From

From Standard forecast or significant change

Wind
  • 180° at 15 KTS
  • {Gusting to 25 KTS
Cloud Levels
  • Broken at 13,000' AGL